Time;durP1;ratioP1;P1;durP2;ratioP2;P2;SDS_P1;SDS_P2;PMS_P1;PMS_P2;Temp;Humidity;BMP_temperature;BMP_pressure;BME280_temperature;BME280_humidity;BME280_pressure;Samples;Min_cycle;Max_cycle;Signal;HPM_P1;HPM_P2
2023/01/08 02:04:10;;;;;;;11.07;3.97;;;8.80;99.90;;;;;;6036463;23;20025;-82
2023/01/08 02:07:00;;;;;;;15.00;5.45;;;8.40;99.90;;;;;;6013499;23;20102;-83
2023/01/08 02:09:45;;;;;;;10.30;3.22;;;8.30;99.90;;;;;;6062344;23;20108;-83
2023/01/08 02:12:32;;;;;;;11.57;3.90;;;8.30;99.90;;;;;;6098976;23;20020;-82
2023/01/08 02:15:22;;;;;;;9.40;1.93;;;9.10;99.90;;;;;;6158289;23;20055;-82
2023/01/08 02:18:11;;;;;;;8.20;2.78;;;8.80;99.90;;;;;;6159286;23;20021;-82
2023/01/08 02:20:48;;;;;;;12.27;4.50;;;9.20;99.90;;;;;;6185928;23;20017;-82
2023/01/08 02:23:54;;;;;;;9.27;3.15;;;9.30;99.90;;;;;;6158249;23;20083;-82
2023/01/08 02:26:47;;;;;;;9.73;3.33;;;7.10;99.90;;;;;;6185358;23;20036;-82
2023/01/08 02:31:58;;;;;;;7.40;2.27;;;9.60;99.90;;;;;;6185863;23;20017;-82
2023/01/08 02:34:33;;;;;;;9.10;2.10;;;7.70;99.90;;;;;;6158441;23;20101;-82
2023/01/08 02:37:14;;;;;;;8.13;2.15;;;7.40;99.90;;;;;;6184269;23;20067;-82
2023/01/08 02:40:25;;;;;;;8.65;2.00;;;9.60;99.90;;;;;;6159268;23;20059;-82
2023/01/08 02:45:58;;;;;;;8.90;2.00;;;8.00;99.90;;;;;;6214513;22;20021;-82
2023/01/08 02:48:52;;;;;;;10.07;2.43;;;7.40;99.90;;;;;;6215219;23;20020;-82
2023/01/08 02:51:47;;;;;;;10.03;2.33;;;7.60;99.90;;;;;;6213922;23;20448;-82
2023/01/08 02:54:28;;;;;;;9.80;2.30;;;9.20;99.90;;;;;;6248405;22;20075;-83
2023/01/08 02:57:13;;;;;;;7.10;2.30;;;9.40;99.90;;;;;;6248592;22;20020;-82
2023/01/08 02:59:47;;;;;;;7.00;2.38;;;8.30;99.90;;;;;;6245662;22;20095;-82
2023/01/08 03:02:57;;;;;;;10.20;3.00;;;7.70;99.90;;;;;;6275678;22;20019;-82
2023/01/08 03:05:47;;;;;;;10.30;3.58;;;7.80;99.90;;;;;;6216347;22;20077;-82
2023/01/08 03:11:25;;;;;;;10.90;4.10;;;8.10;99.90;;;;;;6181244;23;20032;-82
2023/01/08 03:14:02;;;;;;;9.70;4.70;;;8.10;99.90;;;;;;6185808;23;20024;-82
2023/01/08 03:16:56;;;;;;;10.00;4.83;;;9.20;99.90;;;;;;6184831;23;20009;-82
2023/01/08 03:20:01;;;;;;;12.27;4.82;;;8.30;99.90;;;;;;6157612;23;20378;-82
2023/01/08 03:22:42;;;;;;;11.47;5.30;;;7.80;99.90;;;;;;6185092;23;20144;-82
2023/01/08 03:25:19;;;;;;;13.97;5.23;;;9.90;99.90;;;;;;6157537;23;20024;-82
2023/01/08 03:35:26;;;;;;;11.23;4.93;;;8.70;99.90;;;;;;6247503;22;20072;-84
2023/01/08 03:38:31;;;;;;;10.87;4.83;;;9.70;99.90;;;;;;6248875;22;20030;-82
2023/01/08 03:41:12;;;;;;;12.38;4.95;;;8.10;99.90;;;;;;6176054;22;20016;-82
2023/01/08 03:43:44;;;;;;;13.07;5.03;;;10.20;99.90;;;;;;6248239;22;20015;-82
2023/01/08 03:46:48;;;;;;;10.50;4.70;;;10.00;99.90;;;;;;6274672;22;20055;-83
2023/01/08 03:49:37;;;;;;;11.93;5.05;;;8.70;99.90;;;;;;6248410;22;20375;-82
2023/01/08 03:52:22;;;;;;;11.73;5.13;;;8.70;99.90;;;;;;6276544;22;20016;-82
2023/01/08 03:54:48;;;;;;;12.73;5.20;;;8.70;99.90;;;;;;6248511;22;20047;-82
2023/01/08 03:57:26;;;;;;;11.70;5.30;;;8.30;99.90;;;;;;6248418;22;20467;-81
2023/01/08 03:59:53;;;;;;;13.83;5.57;;;8.60;99.90;;;;;;6275524;22;20011;-81
2023/01/08 04:02:28;;;;;;;10.97;5.03;;;8.60;99.90;;;;;;6247730;22;20012;-81
2023/01/08 04:05:12;;;;;;;11.40;5.10;;;8.60;99.90;;;;;;6275513;22;20008;-82
2023/01/08 04:08:15;;;;;;;10.90;5.30;;;7.90;99.90;;;;;;6275218;22;20011;-82
2023/01/08 04:10:56;;;;;;;13.10;5.43;;;7.80;99.90;;;;;;6271225;22;20019;-82
2023/01/08 04:13:33;;;;;;;15.03;6.80;;;9.70;99.90;;;;;;6247988;22;20008;-82
2023/01/08 04:16:02;;;;;;;14.90;6.13;;;9.80;99.90;;;;;;6248407;22;20016;-82
2023/01/08 04:18:37;;;;;;;11.85;5.40;;;8.50;99.90;;;;;;6275366;22;20024;-82
2023/01/08 04:21:21;;;;;;;14.05;6.38;;;8.50;99.90;;;;;;6246384;22;20019;-82
2023/01/08 04:24:03;;;;;;;13.80;5.35;;;8.20;99.90;;;;;;6248431;22;20024;-83
2023/01/08 04:26:43;;;;;;;13.25;5.70;;;8.70;99.90;;;;;;6245011;22;20154;-83
2023/01/08 04:29:17;;;;;;;14.00;6.18;;;8.50;99.90;;;;;;6274834;22;20015;-83
2023/01/08 04:31:52;;;;;;;15.13;6.73;;;8.10;99.90;;;;;;6248629;22;20012;-82
2023/01/08 04:34:39;;;;;;;13.18;6.40;;;8.60;99.90;;;;;;6248240;22;20026;-82
2023/01/08 04:37:13;;;;;;;13.35;6.63;;;9.70;99.90;;;;;;6270793;22;20008;-84
2023/01/08 04:39:50;;;;;;;14.75;6.80;;;8.90;99.90;;;;;;6250462;22;20026;-83
2023/01/08 04:42:30;;;;;;;16.17;6.80;;;8.10;99.90;;;;;;6249494;22;20065;-83
2023/01/08 04:44:56;;;;;;;12.00;5.72;;;8.10;99.90;;;;;;6250259;22;20016;-83
2023/01/08 04:47:22;;;;;;;14.00;6.10;;;8.80;99.90;;;;;;6277217;22;20505;-82
2023/01/08 04:50:03;;;;;;;12.80;5.97;;;9.20;99.90;;;;;;6276915;22;20016;-83
2023/01/08 04:55:34;;;;;;;12.93;5.80;;;9.80;99.90;;;;;;6249959;22;20020;-83
2023/01/08 04:58:09;;;;;;;;;;;9.60;99.90;;;;;;6277036;22;20024;-83
2023/01/08 05:00:45;;;;;;;;;;;;;;;;;;;;;
2023/01/08 05:03:41;;;;;;;11.65;5.68;;;9.90;99.90;;;;;;6131955;22;20025;-83
2023/01/08 05:06:27;;;;;;;12.38;5.55;;;9.20;99.90;;;;;;6249943;22;20020;-83
2023/01/08 05:08:56;;;;;;;15.13;6.20;;;9.50;99.90;;;;;;6255064;22;20325;-84
2023/01/08 05:11:28;;;;;;;12.70;5.35;;;9.70;99.90;;;;;;6264660;22;20047;-83
2023/01/08 05:14:03;;;;;;;11.65;5.20;;;9.90;99.90;;;;;;6253931;22;20020;-83
2023/01/08 05:16:38;;;;;;;11.88;4.93;;;8.50;99.90;;;;;;6249837;22;20015;-83
2023/01/08 05:19:13;;;;;;;11.70;4.63;;;9.50;99.90;;;;;;6249245;22;20022;-83
2023/01/08 05:22:42;;;;;;;10.80;3.80;;;8.40;99.90;;;;;;6238541;22;20016;-83
2023/01/08 05:25:11;;;;;;;11.48;3.40;;;8.00;99.90;;;;;;6218455;23;20016;-83
2023/01/08 05:27:52;;;;;;;11.83;3.20;;;8.30;99.90;;;;;;6217002;23;20019;-83
2023/01/08 05:30:45;;;;;;;12.97;3.23;;;9.60;99.90;;;;;;6219767;23;20082;-83
2023/01/08 05:33:24;;;;;;;9.50;3.03;;;8.90;99.90;;;;;;6134232;23;20077;-83
2023/01/08 05:36:09;;;;;;;11.07;3.50;;;9.70;99.90;;;;;;6220022;23;20344;-83
2023/01/08 05:38:49;;;;;;;10.20;3.20;;;8.10;99.90;;;;;;6257271;23;20020;-83
2023/01/08 05:41:15;;;;;;;7.93;2.60;;;7.70;99.90;;;;;;6246598;23;20031;-83
2023/01/08 05:43:56;;;;;;;8.85;2.50;;;9.30;99.90;;;;;;6168950;23;20452;-83
2023/01/08 05:46:36;;;;;;;9.82;2.53;;;7.50;99.90;;;;;;6244799;23;20016;-83
2023/01/08 05:49:13;;;;;;;12.27;2.50;;;6.80;99.90;;;;;;6219327;23;20027;-83
2023/01/08 05:52:00;;;;;;;9.40;2.43;;;8.80;99.90;;;;;;6213915;23;20023;-83
2023/01/08 05:54:47;;;;;;;8.23;2.30;;;7.70;99.90;;;;;;6246458;23;20058;-84
2023/01/08 05:57:24;;;;;;;8.00;2.10;;;9.00;99.90;;;;;;6246237;23;20026;-84
2023/01/08 06:00:07;;;;;;;7.97;2.17;;;7.20;99.90;;;;;;6218554;23;20012;-83
2023/01/08 06:02:46;;;;;;;7.83;2.10;;;7.60;99.90;;;;;;6218910;23;20391;-83
2023/01/08 06:05:12;;;;;;;10.13;2.00;;;7.80;99.90;;;;;;6246130;23;20050;-83
2023/01/08 06:07:50;;;;;;;9.17;2.03;;;9.10;99.90;;;;;;6218105;23;20008;-83
2023/01/08 06:10:36;;;;;;;10.13;2.20;;;8.30;99.90;;;;;;6246014;23;20078;-83
2023/01/08 06:13:17;;;;;;;9.00;2.10;;;8.40;99.90;;;;;;6249365;23;20491;-83
2023/01/08 06:16:07;;;;;;;10.77;2.40;;;7.10;99.90;;;;;;6219829;23;20341;-83
2023/01/08 06:18:48;;;;;;;8.73;2.10;;;7.50;99.90;;;;;;6218544;23;20517;-83
2023/01/08 06:21:14;;;;;;;9.17;2.33;;;8.10;99.90;;;;;;6243527;23;20348;-84
2023/01/08 06:24:05;;;;;;;7.50;2.20;;;7.40;99.90;;;;;;6246763;23;20016;-83
2023/01/08 06:26:55;;;;;;;9.27;2.43;;;7.90;99.90;;;;;;6245225;23;20543;-84
2023/01/08 06:29:30;;;;;;;9.83;2.30;;;6.70;99.90;;;;;;6217982;23;20024;-83
2023/01/08 06:34:24;;;;;;;8.77;2.60;;;7.50;99.90;;;;;;6221630;22;20016;-83
2023/01/08 06:36:50;;;;;;;10.20;2.13;;;8.20;99.90;;;;;;6277028;22;20462;-83
2023/01/08 06:39:28;;;;;;;12.17;4.33;;;8.60;99.90;;;;;;6249715;22;20471;-83
2023/01/08 06:42:42;;;;;;;14.63;4.20;;;7.00;99.90;;;;;;6275844;22;20106;-83
2023/01/08 06:45:23;;;;;;;14.73;5.97;;;7.50;99.90;;;;;;6277552;22;20026;-83
2023/01/08 06:47:48;;;;;;;13.17;4.73;;;8.20;99.90;;;;;;6250440;22;20012;-83
2023/01/08 06:50:23;;;;;;;11.17;2.90;;;8.40;99.90;;;;;;6277754;22;20022;-84
2023/01/08 06:53:39;;;;;;;7.27;1.97;;;7.50;99.90;;;;;;6277791;22;20012;-84
2023/01/08 06:56:17;;;;;;;11.10;2.03;;;8.40;99.90;;;;;;6221759;22;20097;-84
2023/01/08 06:59:30;;;;;;;10.43;2.53;;;7.40;99.90;;;;;;6252913;22;20382;-84
2023/01/08 07:02:16;;;;;;;10.57;2.23;;;7.00;99.90;;;;;;6267323;22;20047;-84
2023/01/08 07:04:53;;;;;;;9.82;2.10;;;7.40;99.90;;;;;;6250674;22;20023;-84
2023/01/08 07:07:19;;;;;;;11.17;3.07;;;9.10;99.90;;;;;;6249712;22;20020;-84
2023/01/08 07:09:45;;;;;;;10.40;2.10;;;9.10;99.90;;;;;;6277173;22;20045;-84
2023/01/08 07:12:29;;;;;;;10.63;2.20;;;7.50;99.90;;;;;;6250323;22;20015;-84
2023/01/08 07:15:13;;;;;;;7.93;2.20;;;7.00;99.90;;;;;;6251414;22;20329;-84
2023/01/08 07:17:50;;;;;;;8.07;2.10;;;7.40;99.90;;;;;;6250600;22;20054;-84
2023/01/08 07:20:37;;;;;;;10.65;3.03;;;7.00;99.90;;;;;;6276843;22;20344;-84
2023/01/08 07:23:21;;;;;;;8.20;2.30;;;8.90;99.90;;;;;;6276818;22;20058;-84
2023/01/08 07:26:07;;;;;;;8.68;2.05;;;7.70;99.90;;;;;;6251408;22;20436;-84
2023/01/08 07:28:48;;;;;;;7.13;2.13;;;7.40;99.90;;;;;;6271898;22;20035;-84
2023/01/08 07:31:14;;;;;;;10.20;2.30;;;7.10;99.90;;;;;;6245087;23;20020;-84
2023/01/08 07:33:42;;;;;;;12.77;2.27;;;7.30;99.90;;;;;;6219733;23;20026;-86
2023/01/08 07:36:08;;;;;;;8.43;2.10;;;7.30;99.90;;;;;;6246664;23;20100;-82
2023/01/08 07:38:48;;;;;;;9.37;2.40;;;8.00;99.90;;;;;;6243461;22;20091;-82
2023/01/08 07:41:15;;;;;;;9.13;2.80;;;7.70;99.90;;;;;;6218531;23;20020;-82
2023/01/08 07:43:56;;;;;;;10.23;2.30;;;8.50;99.90;;;;;;6217702;23;20104;-82
2023/01/08 07:46:21;;;;;;;9.13;2.30;;;8.20;99.90;;;;;;6218747;23;20020;-84
2023/01/08 07:49:08;;;;;;;9.70;2.30;;;7.40;99.90;;;;;;6220271;23;20030;-83
2023/01/08 07:51:34;;;;;;;11.20;2.60;;;7.50;99.90;;;;;;6247468;23;20016;-82
2023/01/08 07:54:15;;;;;;;8.77;2.37;;;8.90;99.90;;;;;;6221829;23;20020;-82
2023/01/08 07:56:41;;;;;;;8.00;2.43;;;8.90;99.90;;;;;;6220606;23;20069;-81
2023/01/08 07:59:24;;;;;;;9.23;2.27;;;7.40;99.90;;;;;;6245936;23;20090;-82
2023/01/08 08:01:50;;;;;;;7.70;2.28;;;8.30;99.90;;;;;;6219698;23;20012;-82
2023/01/08 08:04:16;;;;;;;8.17;2.10;;;6.70;99.90;;;;;;6219088;23;20048;-81
2023/01/08 08:06:58;;;;;;;11.07;3.83;;;7.20;99.90;;;;;;6218134;23;20024;-82
2023/01/08 08:09:27;;;;;;;10.67;2.43;;;7.50;99.90;;;;;;6218745;23;20016;-81
2023/01/08 08:12:14;;;;;;;9.60;2.10;;;8.30;99.90;;;;;;6247032;23;20051;-81
2023/01/08 08:14:40;;;;;;;8.77;2.50;;;;;;;;;;6241163;23;20035;-82
2023/01/08 08:17:25;;;;;;;8.73;2.37;;;7.00;99.90;;;;;;6219706;23;20341;-82
2023/01/08 08:20:10;;;;;;;7.47;2.10;;;6.90;99.90;;;;;;6247161;23;20020;-82
2023/01/08 08:22:35;;;;;;;7.20;2.20;;;7.00;99.90;;;;;;6219780;23;20023;-81
2023/01/08 08:25:19;;;;;;;9.23;2.27;;;8.00;99.90;;;;;;6218316;23;20035;-82
2023/01/08 08:27:45;;;;;;;10.80;2.20;;;6.80;99.90;;;;;;6245028;23;20021;-81
2023/01/08 08:30:11;;;;;;;8.13;2.23;;;6.60;99.90;;;;;;6218212;23;20016;-81
2023/01/08 08:32:37;;;;;;;9.50;2.30;;;6.70;99.90;;;;;;6245330;23;20016;-81
2023/01/08 08:35:04;;;;;;;10.97;2.50;;;6.70;99.90;;;;;;6243910;23;20491;-81
2023/01/08 08:37:29;;;;;;;11.67;3.37;;;6.70;99.90;;;;;;6217554;23;20389;-81
2023/01/08 08:39:55;;;;;;;9.87;2.37;;;6.80;99.90;;;;;;6218035;23;20016;-81
2023/01/08 08:42:23;;;;;;;8.30;2.20;;;6.80;99.90;;;;;;6216462;23;20020;-81
2023/01/08 08:44:49;;;;;;;9.77;2.87;;;7.20;99.90;;;;;;6244739;23;20023;-81
2023/01/08 08:47:14;;;;;;;9.07;2.40;;;6.80;99.90;;;;;;6244305;23;20306;-81
2023/01/08 08:49:40;;;;;;;10.00;2.73;;;6.80;99.90;;;;;;6216673;23;20445;-81
2023/01/08 08:52:06;;;;;;;9.97;2.30;;;7.70;99.90;;;;;;6217417;23;20026;-81
2023/01/08 08:54:31;;;;;;;9.23;2.20;;;6.90;99.90;;;;;;6244389;23;20392;-82
2023/01/08 08:56:57;;;;;;;10.60;2.37;;;7.70;99.90;;;;;;6216942;23;20128;-82
2023/01/08 08:59:22;;;;;;;8.63;2.50;;;6.90;99.90;;;;;;6244612;23;20496;-81
2023/01/08 09:01:48;;;;;;;8.93;2.33;;;8.10;99.90;;;;;;6244494;23;20008;-81
2023/01/08 09:04:14;;;;;;;8.30;2.10;;;6.90;99.90;;;;;;6244493;23;20091;-82
2023/01/08 09:06:39;;;;;;;10.27;2.40;;;6.80;99.90;;;;;;6218062;23;20063;-82
2023/01/08 09:09:14;;;;;;;9.70;2.30;;;6.90;99.90;;;;;;6243807;23;20448;-82
2023/01/08 09:11:40;;;;;;;8.47;2.17;;;6.90;99.90;;;;;;6242659;23;20012;-82
2023/01/08 09:14:17;;;;;;;9.30;2.30;;;8.50;99.90;;;;;;6217748;23;20095;-82
2023/01/08 09:16:43;;;;;;;7.93;2.00;;;6.70;99.90;;;;;;6243185;23;20095;-82
2023/01/08 09:19:21;;;;;;;8.90;1.93;;;7.00;99.90;;;;;;6217003;23;20047;-82
2023/01/08 09:21:49;;;;;;;7.40;2.00;;;6.80;99.90;;;;;;6216881;23;20016;-82
2023/01/08 09:24:21;;;;;;;8.10;2.00;;;7.10;99.90;;;;;;6215945;23;20016;-82
2023/01/08 09:26:58;;;;;;;10.20;2.20;;;8.50;99.90;;;;;;6246739;23;20087;-82
2023/01/08 09:29:42;;;;;;;6.77;1.73;;;6.70;99.90;;;;;;6218424;23;20020;-82
2023/01/08 09:32:33;;;;;;;12.18;2.08;;;7.70;99.90;;;;;;6244334;22;20024;-83
2023/01/08 09:35:05;;;;;;;11.97;2.20;;;7.20;99.90;;;;;;6246562;23;20028;-83
2023/01/08 09:37:50;;;;;;;9.07;2.10;;;7.20;99.90;;;;;;6245274;23;20049;-83
2023/01/08 09:40:16;;;;;;;9.17;2.27;;;6.70;99.90;;;;;;6245453;23;20058;-83
2023/01/08 09:42:59;;;;;;;7.77;2.10;;;7.30;99.90;;;;;;6240285;23;20024;-82
2023/01/08 09:45:47;;;;;;;7.93;2.20;;;8.70;99.90;;;;;;6236212;23;20016;-83
2023/01/08 09:48:33;;;;;;;7.00;2.07;;;7.10;99.90;;;;;;6245372;22;20475;-83
2023/01/08 09:51:19;;;;;;;8.17;1.90;;;8.80;99.90;;;;;;6232418;23;20091;-82
2023/01/08 09:53:47;;;;;;;6.87;2.00;;;7.20;99.90;;;;;;6242875;23;20073;-83
2023/01/08 09:56:29;;;;;;;12.47;2.53;;;7.60;99.90;;;;;;6235142;23;20019;-84
2023/01/08 09:59:16;;;;;;;10.07;2.00;;;8.70;99.90;;;;;;6243374;23;20020;-83
2023/01/08 10:01:44;;;;;;;10.23;2.27;;;7.60;99.90;;;;;;6240930;23;20008;-83
2023/01/08 10:04:25;;;;;;;10.60;2.50;;;9.20;99.90;;;;;;6238029;23;20028;-83
2023/01/08 10:07:14;;;;;;;10.33;2.10;;;7.60;99.90;;;;;;6245738;23;20142;-84
2023/01/08 10:09:55;;;;;;;7.67;2.00;;;7.50;99.90;;;;;;6238739;23;20012;-83
2023/01/08 10:12:43;;;;;;;12.67;2.37;;;8.90;99.90;;;;;;6235017;23;20016;-84
2023/01/08 10:15:27;;;;;;;12.90;2.30;;;7.30;99.90;;;;;;6245657;22;20020;-82
2023/01/08 10:18:18;;;;;;;11.98;2.20;;;7.70;99.90;;;;;;6245383;23;20016;-82
2023/01/08 10:20:44;;;;;;;11.30;2.30;;;7.10;99.90;;;;;;6241027;23;20440;-83
2023/01/08 10:23:28;;;;;;;13.00;2.57;;;9.30;99.90;;;;;;6234830;23;20069;-82
2023/01/08 10:25:55;;;;;;;;;;;9.30;99.90;;;;;;6245262;23;20008;-82
2023/01/08 10:28:42;;;;;;;11.47;2.30;;;9.50;99.90;;;;;;6244901;23;19915;-82
2023/01/08 10:31:13;;;;;;;9.60;2.17;;;7.50;99.90;;;;;;6231333;22;20071;-83
2023/01/08 10:33:44;;;;;;;9.90;2.20;;;9.50;99.90;;;;;;6215035;23;20139;-82
2023/01/08 10:36:26;;;;;;;11.33;2.20;;;8.90;99.90;;;;;;6215047;23;20553;-83
2023/01/08 10:39:22;;;;;;;13.53;2.50;;;9.50;99.90;;;;;;6188249;23;20112;-82
2023/01/08 10:42:05;;;;;;;11.40;2.40;;;8.00;99.90;;;;;;6214760;23;20020;-82
2023/01/08 10:45:01;;;;;;;10.73;2.40;;;8.00;99.90;;;;;;6215301;23;20020;-82
2023/01/08 10:47:36;;;;;;;11.13;2.30;;;9.50;99.90;;;;;;6214183;23;20052;-82
2023/01/08 10:50:35;;;;;;;11.73;2.60;;;9.60;99.90;;;;;;6188752;23;20047;-82
2023/01/08 10:53:21;;;;;;;13.50;2.37;;;8.30;99.90;;;;;;6188716;23;20441;-82
2023/01/08 10:56:04;;;;;;;7.80;1.70;;;7.80;99.90;;;;;;6214104;23;20092;-82
2023/01/08 10:58:42;;;;;;;12.87;2.10;;;8.40;99.90;;;;;;6215192;23;20099;-82
2023/01/08 11:01:29;;;;;;;9.77;2.10;;;9.50;99.90;;;;;;6214433;23;20070;-82
2023/01/08 11:03:56;;;;;;;12.73;2.23;;;8.50;99.90;;;;;;6213629;23;20457;-82
2023/01/08 11:06:35;;;;;;;12.50;2.50;;;10.20;99.90;;;;;;6214862;23;20103;-82
2023/01/08 11:09:14;;;;;;;12.53;2.30;;;9.10;99.90;;;;;;6187304;23;20016;-82
2023/01/08 11:11:49;;;;;;;11.90;2.40;;;8.70;99.90;;;;;;6215393;23;20024;-82
2023/01/08 11:14:34;;;;;;;14.27;2.40;;;9.80;99.90;;;;;;6214731;23;20067;-83
2023/01/08 11:17:01;;;;;;;13.40;2.50;;;8.70;99.90;;;;;;6186761;23;20013;-82
2023/01/08 11:19:45;;;;;;;13.23;3.03;;;8.50;99.90;;;;;;6214561;23;20027;-81
2023/01/08 11:22:25;;;;;;;9.80;2.10;;;9.90;99.90;;;;;;6188034;23;20016;-82
2023/01/08 11:25:12;;;;;;;11.60;2.30;;;9.10;99.90;;;;;;6214518;23;20019;-81
2023/01/08 11:27:51;;;;;;;9.50;2.30;;;8.60;99.90;;;;;;6188413;23;20023;-82
2023/01/08 11:30:35;;;;;;;13.10;2.20;;;8.00;99.90;;;;;;6186480;23;20155;-81
2023/01/08 11:33:19;;;;;;;9.45;2.08;;;9.90;99.90;;;;;;6213804;23;20023;-82
2023/01/08 11:36:30;;;;;;;12.37;2.30;;;10.40;99.90;;;;;;6189388;23;20345;-82
2023/01/08 11:39:20;;;;;;;11.10;2.20;;;8.30;99.90;;;;;;6091780;23;20017;-82
2023/01/08 11:42:01;;;;;;;14.10;2.10;;;9.50;99.90;;;;;;6214369;23;20012;-82
2023/01/08 11:44:48;;;;;;;13.40;2.50;;;10.10;99.90;;;;;;6213246;23;20017;-82
2023/01/08 11:47:43;;;;;;;11.10;2.30;;;9.00;99.90;;;;;;6187088;23;20016;-81
2023/01/08 11:50:28;;;;;;;11.30;2.13;;;9.30;99.90;;;;;;6187743;23;20383;-82
2023/01/08 11:53:19;;;;;;;17.15;2.63;;;9.20;99.90;;;;;;6186453;23;20012;-82
2023/01/08 11:56:45;;;;;;;13.30;2.33;;;9.30;99.90;;;;;;6187118;23;20198;-82
2023/01/08 11:59:38;;;;;;;13.47;2.67;;;9.40;99.90;;;;;;6125066;23;20077;-83
2023/01/08 12:10:03;;;;;;;12.77;2.45;;;9.40;99.90;;;;;;6214887;23;20044;-83
2023/01/08 12:12:56;;;;;;;11.35;2.30;;;9.20;99.90;;;;;;6086723;23;20113;-83
2023/01/08 12:19:31;;;;;;;9.88;2.20;;;9.10;99.90;;;;;;6243338;23;20095;-83
2023/01/08 12:22:41;;;;;;;10.20;2.20;;;9.30;99.90;;;;;;6245696;23;20008;-83
2023/01/08 12:25:38;;;;;;;13.30;3.35;;;9.30;99.90;;;;;;6210541;23;20031;-83
2023/01/08 12:28:59;;;;;;;11.27;2.75;;;9.30;99.90;;;;;;6231365;23;20103;-83
2023/01/08 12:32:13;;;;;;;;;;;;;;;;;;;;;
2023/01/08 12:35:08;;;;;;;11.23;2.40;;;9.00;99.90;;;;;;6216502;23;20070;-82
2023/01/08 12:38:19;;;;;;;11.45;2.40;;;9.30;99.90;;;;;;6217585;23;20475;-83
2023/01/08 12:41:19;;;;;;;7.53;2.10;;;9.30;99.90;;;;;;6210924;23;20456;-82
2023/01/08 12:44:10;;;;;;;15.77;3.00;;;9.40;99.90;;;;;;6244328;23;20027;-82
2023/01/08 12:47:01;;;;;;;10.90;2.53;;;9.10;99.90;;;;;;6217672;23;20013;-82
2023/01/08 12:50:00;;;;;;;10.75;2.35;;;9.20;99.90;;;;;;6244852;23;20022;-83
2023/01/08 12:53:04;;;;;;;10.85;2.22;;;8.90;99.90;;;;;;6216572;23;20038;-84
2023/01/08 12:56:17;;;;;;;10.73;2.47;;;10.80;99.90;;;;;;6241754;23;20020;-84
2023/01/08 12:59:11;;;;;;;12.47;2.33;;;9.60;99.90;;;;;;6214330;23;20035;-84
2023/01/08 13:02:20;;;;;;;9.52;2.25;;;9.60;99.90;;;;;;6216762;23;20453;-83
2023/01/08 13:04:48;;;;;;;10.30;2.40;;;9.80;99.90;;;;;;6219419;23;20449;-83
2023/01/08 13:07:42;;;;;;;9.63;2.57;;;11.40;99.90;;;;;;6246184;23;20020;-83
2023/01/08 13:10:21;;;;;;;9.23;2.55;;;11.30;99.90;;;;;;6218370;23;20019;-84
2023/01/08 13:13:00;;;;;;;;;;;;;;;;;;;;;
2023/01/08 13:15:30;;;;;;;11.35;2.25;;;11.40;99.90;;;;;;6214719;23;20020;-82
2023/01/08 13:18:07;;;;;;;8.55;2.05;;;10.00;99.90;;;;;;6151939;23;20053;-83
2023/01/08 13:20:39;;;;;;;9.65;1.90;;;10.00;99.90;;;;;;6128553;23;20017;-83
2023/01/08 13:23:23;;;;;;;10.30;2.45;;;11.60;99.90;;;;;;6163630;23;20068;-83
2023/01/08 13:25:54;;;;;;;11.95;2.25;;;9.80;99.90;;;;;;6129096;23;20486;-82
2023/01/08 13:28:41;;;;;;;11.48;2.50;;;10.90;99.90;;;;;;6127160;23;20117;-83
2023/01/08 13:31:40;;;;;;;10.48;2.38;;;9.60;99.90;;;;;;6125901;23;20104;-83
2023/01/08 13:35:30;;;;;;;9.07;2.15;;;10.70;99.90;;;;;;6152361;23;20097;-84
2023/01/08 13:38:21;;;;;;;8.02;1.80;;;9.30;99.90;;;;;;6127128;23;20057;-83
2023/01/08 13:40:46;;;;;;;12.52;3.38;;;9.70;99.90;;;;;;6121597;23;20458;-83
2023/01/08 13:43:55;;;;;;;8.55;2.22;;;10.10;99.90;;;;;;6126815;23;20025;-82
2023/01/08 13:46:22;;;;;;;8.52;2.30;;;9.70;99.90;;;;;;6152512;23;20018;-81
2023/01/08 13:49:04;;;;;;;11.38;3.30;;;10.70;99.90;;;;;;6192762;23;20016;-81
2023/01/08 13:51:51;;;;;;;9.60;2.20;;;9.70;99.90;;;;;;6217225;23;20031;-81
2023/01/08 13:54:38;;;;;;;8.70;2.00;;;11.40;99.90;;;;;;6244862;23;20020;-80
2023/01/08 13:57:19;;;;;;;7.55;2.10;;;10.80;99.90;;;;;;6218732;23;20436;-81
2023/01/08 13:59:51;;;;;;;7.82;1.90;;;10.40;99.90;;;;;;6219706;23;20025;-81
2023/01/08 14:02:30;;;;;;;8.05;2.20;;;9.80;99.90;;;;;;6217888;23;20016;-81
2023/01/08 14:05:39;;;;;;;8.23;1.75;;;10.40;99.90;;;;;;6244536;23;20103;-81
2023/01/08 14:11:36;;;;;;;6.93;1.88;;;11.10;99.90;;;;;;6216646;23;20082;-81
2023/01/08 14:14:12;;;;;;;8.80;2.13;;;11.10;99.90;;;;;;6245365;23;20016;-81
2023/01/08 14:16:39;;;;;;;8.23;2.22;;;10.40;99.90;;;;;;6218415;23;20459;-81
2023/01/08 14:19:19;;;;;;;6.60;1.55;;;9.10;99.90;;;;;;6217424;23;20020;-80
2023/01/08 14:21:50;;;;;;;9.68;2.13;;;9.30;99.90;;;;;;6218008;23;20048;-80
2023/01/08 14:24:24;;;;;;;8.98;2.00;;;10.40;99.90;;;;;;6245004;23;20057;-81
2023/01/08 14:26:53;;;;;;;4.32;1.40;;;9.90;99.90;;;;;;6216844;23;20345;-81
2023/01/08 14:29:43;;;;;;;7.72;1.70;;;9.70;99.90;;;;;;6244710;23;20015;-81
2023/01/08 14:32:29;;;;;;;8.18;1.90;;;8.90;99.90;;;;;;6243838;23;20020;-81
2023/01/08 14:35:08;;;;;;;7.68;1.70;;;10.20;99.90;;;;;;6245228;23;20016;-81
2023/01/08 14:37:34;;;;;;;6.47;1.60;;;8.90;99.90;;;;;;6217977;23;20459;-81
2023/01/08 14:40:23;;;;;;;6.70;1.70;;;10.30;99.90;;;;;;6242537;22;20401;-82
2023/01/08 14:43:10;;;;;;;5.45;1.55;;;9.00;99.90;;;;;;6244524;23;20425;-81
2023/01/08 14:45:37;;;;;;;7.43;1.80;;;10.00;99.90;;;;;;6218271;23;20066;-81
2023/01/08 14:48:21;;;;;;;6.65;1.80;;;9.00;99.90;;;;;;6243485;23;20098;-81
2023/01/08 14:51:07;;;;;;;7.38;1.80;;;9.90;99.90;;;;;;6224588;22;20487;-80
2023/01/08 14:53:53;;;;;;;5.90;1.90;;;9.00;99.90;;;;;;6274663;22;20016;-81
2023/01/08 14:56:48;;;;;;;5.28;1.80;;;9.00;99.90;;;;;;6274475;22;20090;-81
2023/01/08 14:59:20;;;;;;;6.55;1.70;;;9.40;99.90;;;;;;6271214;22;20022;-81
2023/01/08 15:01:52;;;;;;;5.30;1.53;;;9.00;99.90;;;;;;6247616;22;20038;-81
2023/01/08 15:04:20;;;;;;;6.65;1.90;;;8.90;99.90;;;;;;6247717;22;20015;-81
2023/01/08 15:06:46;;;;;;;5.88;1.63;;;9.30;99.90;;;;;;6247276;22;20012;-81
2023/01/08 15:09:27;;;;;;;7.32;1.90;;;8.70;99.90;;;;;;6273661;22;20373;-80
2023/01/08 15:11:54;;;;;;;6.70;1.80;;;8.60;99.90;;;;;;6247489;22;20015;-80
2023/01/08 15:14:25;;;;;;;7.03;1.90;;;8.40;99.90;;;;;;6244407;22;20016;-80
2023/01/08 15:17:11;;;;;;;4.90;1.70;;;8.30;99.90;;;;;;6242104;23;20058;-80
2023/01/08 15:19:48;;;;;;;4.87;1.77;;;8.40;99.90;;;;;;6206710;23;20060;-81
2023/01/08 15:22:25;;;;;;;9.00;2.50;;;8.30;99.90;;;;;;6185749;23;20017;-81
2023/01/08 15:24:57;;;;;;;9.35;3.10;;;8.20;99.90;;;;;;6213894;23;20016;-81
2023/01/08 15:27:23;;;;;;;15.38;6.53;;;8.10;99.90;;;;;;6186804;23;20017;-81
2023/01/08 15:29:59;;;;;;;20.83;8.27;;;8.10;99.90;;;;;;6186191;23;20018;-80
2023/01/08 15:32:35;;;;;;;13.43;4.73;;;8.10;99.90;;;;;;6186823;23;20013;-80
2023/01/08 15:35:12;;;;;;;8.97;2.93;;;8.00;99.90;;;;;;6187343;23;20333;-80
2023/01/08 15:37:38;;;;;;;8.47;2.70;;;8.00;99.90;;;;;;6186350;23;20322;-80
2023/01/08 15:40:04;;;;;;;8.27;2.63;;;7.90;99.90;;;;;;6186907;23;20020;-80
2023/01/08 15:45:18;;;;;;;5.63;2.27;;;7.80;99.90;;;;;;6186975;23;20024;-80
2023/01/08 15:47:44;;;;;;;6.43;1.90;;;7.90;99.90;;;;;;6187585;23;20013;-80
2023/01/08 15:50:10;;;;;;;6.23;1.80;;;7.70;99.90;;;;;;6213326;23;20020;-80
2023/01/08 15:52:38;;;;;;;6.23;1.77;;;7.70;99.90;;;;;;6187105;23;20035;-80
2023/01/08 15:55:05;;;;;;;7.07;1.90;;;7.70;99.90;;;;;;6186567;23;20020;-80
2023/01/08 15:57:31;;;;;;;5.73;1.80;;;7.60;99.90;;;;;;6212572;23;20385;-80
2023/01/08 15:59:57;;;;;;;5.40;1.80;;;7.60;99.90;;;;;;6187589;23;20056;-80
2023/01/08 16:02:23;;;;;;;7.67;1.77;;;7.50;99.90;;;;;;6214284;23;20321;-80
2023/01/08 16:04:56;;;;;;;10.50;2.17;;;7.50;99.90;;;;;;6211286;23;20016;-80
2023/01/08 16:07:21;;;;;;;10.07;2.10;;;7.50;99.90;;;;;;6186307;23;20067;-80
2023/01/08 16:09:47;;;;;;;7.43;1.80;;;7.40;99.90;;;;;;6187480;23;20012;-81
2023/01/08 16:12:13;;;;;;;8.43;1.97;;;7.40;99.90;;;;;;6212749;23;20013;-83
2023/01/08 16:14:39;;;;;;;8.13;1.90;;;7.30;99.90;;;;;;6214146;23;20464;-83
2023/01/08 16:17:06;;;;;;;10.00;2.37;;;7.30;99.90;;;;;;6214263;23;20017;-83
2023/01/08 16:19:32;;;;;;;8.00;1.90;;;7.20;99.90;;;;;;6186407;23;20070;-83
2023/01/08 16:22:04;;;;;;;10.30;2.63;;;7.50;99.90;;;;;;6220886;23;20341;-84
2023/01/08 16:24:38;;;;;;;5.80;1.80;;;6.70;99.90;;;;;;6191457;23;20017;-81
2023/01/08 16:27:25;;;;;;;9.53;2.23;;;6.90;99.90;;;;;;6217567;23;20020;-83
2023/01/08 16:33:39;;;;;;;8.17;2.20;;;6.80;99.90;;;;;;6153821;23;20083;-82
2023/01/08 16:36:20;;;;;;;9.77;2.30;;;6.80;99.90;;;;;;6157953;23;20446;-82
2023/01/08 16:38:58;;;;;;;9.90;2.20;;;8.60;99.90;;;;;;6132652;23;20026;-82
2023/01/08 16:41:48;;;;;;;9.80;2.20;;;8.60;99.90;;;;;;6156949;23;20104;-83
2023/01/08 16:44:27;;;;;;;7.97;2.10;;;6.30;99.90;;;;;;6129934;23;20444;-83
2023/01/08 16:46:57;;;;;;;9.47;2.10;;;8.30;99.90;;;;;;6153121;23;20028;-83
2023/01/08 16:49:38;;;;;;;10.03;2.40;;;6.50;99.90;;;;;;6153348;23;20498;-83